Lakeview, Arkansas
Current Conditions -  °F | °C
As of 5:53 AM on Friday 28 Nov 2014 (Local Time) from KBPK Reporting Station
Clear Clear  
Wind Chill: 31°   Ceiling: Unl
Heat Index: 31°   Visibility: 8mi
Dew Point: 26°   Wind: 3mph
Humidity: 82%   Direction: 140°SE
Pressure: 30.26"   Gusts: NA
Location:  36.37°N, 92.55°W
Report Text: KBPK 281153Z AUTO 14003KT 8SM CLR M01/M03 A3026 RMK AO2 SLP252 T10061033 10006 21011 56020
Loading
Personal Weather Stations






























Interactive Weather Map New forecast layout! Learn more

10-Day Weather Forecast

Advertisements
Track Severe Weather on mobile